sensor_id;sensor_type;location;lat;lon;timestamp;pressure;altitude;pressure_sealevel;temperature;humidity
58759;BME280;46777;47.482;19.054;2022-08-04T00:01:55;100557.88;;;25.54;nan
58759;BME280;46777;47.482;19.054;2022-08-04T00:04:54;100560.63;;;25.67;nan
58759;BME280;46777;47.482;19.054;2022-08-04T00:08:15;100574.06;;;25.81;nan
58759;BME280;46777;47.482;19.054;2022-08-04T00:11:07;100561.19;;;25.86;nan
58759;BME280;46777;47.482;19.054;2022-08-04T00:14:08;100558.53;;;25.72;nan
58759;BME280;46777;47.482;19.054;2022-08-04T00:16:56;100557.78;;;25.55;nan
58759;BME280;46777;47.482;19.054;2022-08-04T00:19:44;100558.28;;;25.33;nan
58759;BME280;46777;47.482;19.054;2022-08-04T00:22:33;100556.06;;;25.54;nan
58759;BME280;46777;47.482;19.054;2022-08-04T00:25:18;100562.22;;;25.42;nan
58759;BME280;46777;47.482;19.054;2022-08-04T00:28:03;100558.75;;;25.40;nan
58759;BME280;46777;47.482;19.054;2022-08-04T00:30:48;100564.41;;;25.50;nan
58759;BME280;46777;47.482;19.054;2022-08-04T00:33:33;100563.63;;;25.62;nan
58759;BME280;46777;47.482;19.054;2022-08-04T00:36:17;100565.25;;;25.79;nan
58759;BME280;46777;47.482;19.054;2022-08-04T00:39:03;100563.22;;;25.83;nan
58759;BME280;46777;47.482;19.054;2022-08-04T00:42:24;100564.91;;;25.98;nan
58759;BME280;46777;47.482;19.054;2022-08-04T00:45:58;100570.22;;;25.85;nan
58759;BME280;46777;47.482;19.054;2022-08-04T00:54:41;100574.25;;;25.78;nan
58759;BME280;46777;47.482;19.054;2022-08-04T01:00:20;100585.81;;;25.66;nan
58759;BME280;46777;47.482;19.054;2022-08-04T01:03:17;100579.00;;;25.60;nan
58759;BME280;46777;47.482;19.054;2022-08-04T01:09:43;100571.97;;;25.72;nan
58759;BME280;46777;47.482;19.054;2022-08-04T01:16:01;100586.56;;;26.78;nan
58759;BME280;46777;47.482;19.054;2022-08-04T01:21:54;100582.22;;;26.76;nan
58759;BME280;46777;47.482;19.054;2022-08-04T01:25:02;100575.22;;;26.73;nan
58759;BME280;46777;47.482;19.054;2022-08-04T01:30:44;100578.88;;;26.45;nan
58759;BME280;46777;47.482;19.054;2022-08-04T01:33:34;100589.66;;;26.45;nan
58759;BME280;46777;47.482;19.054;2022-08-04T01:36:22;100582.25;;;26.21;nan
58759;BME280;46777;47.482;19.054;2022-08-04T01:39:08;100584.69;;;26.39;nan
58759;BME280;46777;47.482;19.054;2022-08-04T01:42:12;100582.00;;;26.39;nan
58759;BME280;46777;47.482;19.054;2022-08-04T01:45:05;100583.63;;;26.41;nan
58759;BME280;46777;47.482;19.054;2022-08-04T01:47:51;100587.13;;;26.56;nan
58759;BME280;46777;47.482;19.054;2022-08-04T01:50:37;100586.81;;;26.33;nan
58759;BME280;46777;47.482;19.054;2022-08-04T01:53:31;100580.34;;;26.23;nan
58759;BME280;46777;47.482;19.054;2022-08-04T01:56:18;100580.47;;;26.35;nan
58759;BME280;46777;47.482;19.054;2022-08-04T01:59:04;100578.88;;;26.45;nan
58759;BME280;46777;47.482;19.054;2022-08-04T02:01:49;100578.72;;;26.33;nan
58759;BME280;46777;47.482;19.054;2022-08-04T02:04:34;100579.75;;;26.18;nan
58759;BME280;46777;47.482;19.054;2022-08-04T02:11:14;100577.13;;;25.89;nan
58759;BME280;46777;47.482;19.054;2022-08-04T02:14:29;100576.91;;;26.07;nan
58759;BME280;46777;47.482;19.054;2022-08-04T02:20:23;100570.03;;;25.74;nan
58759;BME280;46777;47.482;19.054;2022-08-04T02:23:13;100570.97;;;25.87;nan
58759;BME280;46777;47.482;19.054;2022-08-04T02:26:01;100575.41;;;25.88;nan
58759;BME280;46777;47.482;19.054;2022-08-04T02:28:54;100573.16;;;25.95;nan
58759;BME280;46777;47.482;19.054;2022-08-04T02:31:48;100582.28;;;26.07;nan
58759;BME280;46777;47.482;19.054;2022-08-04T02:35:08;100583.59;;;26.14;nan
58759;BME280;46777;47.482;19.054;2022-08-04T02:38:10;100579.44;;;25.81;nan
58759;BME280;46777;47.482;19.054;2022-08-04T02:40:56;100575.34;;;26.17;nan
58759;BME280;46777;47.482;19.054;2022-08-04T02:43:46;100580.38;;;26.09;nan
58759;BME280;46777;47.482;19.054;2022-08-04T02:46:34;100579.41;;;25.95;nan
58759;BME280;46777;47.482;19.054;2022-08-04T02:49:20;100570.22;;;25.85;nan
58759;BME280;46777;47.482;19.054;2022-08-04T02:52:06;100574.47;;;25.75;nan
58759;BME280;46777;47.482;19.054;2022-08-04T02:54:55;100577.91;;;25.77;nan
58759;BME280;46777;47.482;19.054;2022-08-04T02:57:44;100571.25;;;25.97;nan
58759;BME280;46777;47.482;19.054;2022-08-04T03:00:31;100573.47;;;26.05;nan
58759;BME280;46777;47.482;19.054;2022-08-04T03:03:35;100570.66;;;25.92;nan
58759;BME280;46777;47.482;19.054;2022-08-04T03:15:58;100567.66;;;25.96;nan
58759;BME280;46777;47.482;19.054;2022-08-04T03:28:43;100580.38;;;25.94;nan
58759;BME280;46777;47.482;19.054;2022-08-04T03:50:41;100578.28;;;25.85;nan
58759;BME280;46777;47.482;19.054;2022-08-04T03:57:20;100584.63;;;25.84;nan
58759;BME280;46777;47.482;19.054;2022-08-04T04:12:40;100593.31;;;26.44;nan
58759;BME280;46777;47.482;19.054;2022-08-04T04:21:36;100586.38;;;26.27;nan
58759;BME280;46777;47.482;19.054;2022-08-04T04:28:01;100598.09;;;26.53;nan
58759;BME280;46777;47.482;19.054;2022-08-04T04:44:29;100601.41;;;26.84;nan
58759;BME280;46777;47.482;19.054;2022-08-04T04:50:11;100606.50;;;26.61;nan
58759;BME280;46777;47.482;19.054;2022-08-04T04:53:06;100604.97;;;26.57;nan
58759;BME280;46777;47.482;19.054;2022-08-04T04:59:20;100608.75;;;27.08;nan
58759;BME280;46777;47.482;19.054;2022-08-04T05:11:11;100614.41;;;26.37;nan
58759;BME280;46777;47.482;19.054;2022-08-04T05:17:21;100626.75;;;26.94;nan
58759;BME280;46777;47.482;19.054;2022-08-04T05:22:55;100626.47;;;26.72;nan
58759;BME280;46777;47.482;19.054;2022-08-04T05:26:07;100631.59;;;26.89;nan
58759;BME280;46777;47.482;19.054;2022-08-04T05:28:56;100622.03;;;26.98;nan
58759;BME280;46777;47.482;19.054;2022-08-04T05:31:49;100634.81;;;26.94;nan
58759;BME280;46777;47.482;19.054;2022-08-04T05:34:39;100640.41;;;26.91;nan
58759;BME280;46777;47.482;19.054;2022-08-04T05:37:26;100627.31;;;27.25;nan
58759;BME280;46777;47.482;19.054;2022-08-04T05:40:11;100628.94;;;27.15;nan
58759;BME280;46777;47.482;19.054;2022-08-04T05:42:57;100626.28;;;27.41;nan
58759;BME280;46777;47.482;19.054;2022-08-04T05:45:44;100634.88;;;27.20;nan
58759;BME280;46777;47.482;19.054;2022-08-04T05:48:32;100650.09;;;26.81;nan
58759;BME280;46777;47.482;19.054;2022-08-04T05:51:17;100641.00;;;26.69;nan
58759;BME280;46777;47.482;19.054;2022-08-04T05:54:04;100636.84;;;26.50;nan
58759;BME280;46777;47.482;19.054;2022-08-04T05:56:49;100649.69;;;26.32;nan
58759;BME280;46777;47.482;19.054;2022-08-04T05:59:37;100640.34;;;26.38;nan
58759;BME280;46777;47.482;19.054;2022-08-04T06:02:23;100654.09;;;26.61;nan
58759;BME280;46777;47.482;19.054;2022-08-04T06:05:09;100646.78;;;26.36;nan
58759;BME280;46777;47.482;19.054;2022-08-04T06:07:55;100645.78;;;26.51;nan
58759;BME280;46777;47.482;19.054;2022-08-04T06:10:41;100642.75;;;26.70;nan
58759;BME280;46777;47.482;19.054;2022-08-04T06:13:29;100643.59;;;26.71;nan
58759;BME280;46777;47.482;19.054;2022-08-04T06:16:16;100644.59;;;26.70;nan
58759;BME280;46777;47.482;19.054;2022-08-04T06:19:05;100648.59;;;26.77;nan
58759;BME280;46777;47.482;19.054;2022-08-04T06:21:53;100644.50;;;26.57;nan
58759;BME280;46777;47.482;19.054;2022-08-04T06:24:39;100645.59;;;26.94;nan
58759;BME280;46777;47.482;19.054;2022-08-04T06:27:27;100645.44;;;27.23;nan
58759;BME280;46777;47.482;19.054;2022-08-04T06:30:14;100643.81;;;27.20;nan
58759;BME280;46777;47.482;19.054;2022-08-04T06:33:00;100640.50;;;27.43;nan
58759;BME280;46777;47.482;19.054;2022-08-04T06:35:46;100641.19;;;27.96;nan
58759;BME280;46777;47.482;19.054;2022-08-04T06:38:32;100641.66;;;27.90;nan
58759;BME280;46777;47.482;19.054;2022-08-04T06:41:20;100644.00;;;27.95;nan
58759;BME280;46777;47.482;19.054;2022-08-04T06:44:07;100633.97;;;28.10;nan
58759;BME280;46777;47.482;19.054;2022-08-04T06:46:53;100632.63;;;28.28;nan
58759;BME280;46777;47.482;19.054;2022-08-04T06:49:39;100631.47;;;28.43;nan
58759;BME280;46777;47.482;19.054;2022-08-04T06:52:25;100635.28;;;27.91;nan
58759;BME280;46777;47.482;19.054;2022-08-04T06:55:10;100626.75;;;28.34;nan
58759;BME280;46777;47.482;19.054;2022-08-04T06:57:55;100630.88;;;28.75;nan
58759;BME280;46777;47.482;19.054;2022-08-04T07:00:43;100626.91;;;28.44;nan
58759;BME280;46777;47.482;19.054;2022-08-04T07:03:29;100636.22;;;28.40;nan
58759;BME280;46777;47.482;19.054;2022-08-04T07:06:14;100632.44;;;28.42;nan
58759;BME280;46777;47.482;19.054;2022-08-04T07:08:59;100636.22;;;28.40;nan
58759;BME280;46777;47.482;19.054;2022-08-04T07:11:45;100636.22;;;28.40;nan
58759;BME280;46777;47.482;19.054;2022-08-04T07:14:31;100631.00;;;28.50;nan
58759;BME280;46777;47.482;19.054;2022-08-04T07:17:20;100626.66;;;28.60;nan
58759;BME280;46777;47.482;19.054;2022-08-04T07:20:05;100635.84;;;28.82;nan
58759;BME280;46777;47.482;19.054;2022-08-04T07:22:50;100631.91;;;28.86;nan
58759;BME280;46777;47.482;19.054;2022-08-04T07:25:36;100625.44;;;29.35;nan
58759;BME280;46777;47.482;19.054;2022-08-04T07:28:22;100630.88;;;29.11;nan
58759;BME280;46777;47.482;19.054;2022-08-04T07:31:14;100622.75;;;29.00;nan
58759;BME280;46777;47.482;19.054;2022-08-04T07:34:00;100623.28;;;29.16;nan
58759;BME280;46777;47.482;19.054;2022-08-04T07:36:47;100619.75;;;29.27;nan
58759;BME280;46777;47.482;19.054;2022-08-04T07:39:31;100619.78;;;29.50;nan
58759;BME280;46777;47.482;19.054;2022-08-04T07:42:18;100615.41;;;29.83;nan
58759;BME280;46777;47.482;19.054;2022-08-04T07:45:03;100610.97;;;29.81;nan
58759;BME280;46777;47.482;19.054;2022-08-04T07:47:48;100610.19;;;29.57;nan
58759;BME280;46777;47.482;19.054;2022-08-04T07:50:34;100610.69;;;29.51;nan
58759;BME280;46777;47.482;19.054;2022-08-04T07:53:20;100602.31;;;29.42;nan
58759;BME280;46777;47.482;19.054;2022-08-04T07:56:04;100610.41;;;29.76;nan
58759;BME280;46777;47.482;19.054;2022-08-04T07:58:49;100613.16;;;29.65;nan
58759;BME280;46777;47.482;19.054;2022-08-04T08:01:35;100603.06;;;29.78;nan
58759;BME280;46777;47.482;19.054;2022-08-04T08:04:21;100599.94;;;30.61;nan
58759;BME280;46777;47.482;19.054;2022-08-04T08:07:06;100609.22;;;30.79;nan
58759;BME280;46777;47.482;19.054;2022-08-04T08:09:51;100615.16;;;30.73;nan
58759;BME280;46777;47.482;19.054;2022-08-04T08:12:36;100611.31;;;30.97;nan
58759;BME280;46777;47.482;19.054;2022-08-04T08:15:22;100607.16;;;31.35;nan
58759;BME280;46777;47.482;19.054;2022-08-04T08:18:06;100609.88;;;30.93;nan
58759;BME280;46777;47.482;19.054;2022-08-04T08:20:51;100614.06;;;31.18;nan
58759;BME280;46777;47.482;19.054;2022-08-04T08:23:37;100616.13;;;30.51;nan
58759;BME280;46777;47.482;19.054;2022-08-04T08:26:22;100606.81;;;31.49;nan
58759;BME280;46777;47.482;19.054;2022-08-04T08:29:07;100605.25;;;31.26;nan
58759;BME280;46777;47.482;19.054;2022-08-04T08:31:52;100606.34;;;31.13;nan
58759;BME280;46777;47.482;19.054;2022-08-04T08:34:38;100602.09;;;31.82;nan
58759;BME280;46777;47.482;19.054;2022-08-04T08:37:34;100599.00;;;31.97;nan
58759;BME280;46777;47.482;19.054;2022-08-04T08:40:41;100606.63;;;31.72;nan
58759;BME280;46777;47.482;19.054;2022-08-04T08:43:37;100600.63;;;31.68;nan
58759;BME280;46777;47.482;19.054;2022-08-04T08:47:00;100604.25;;;32.78;nan
58759;BME280;46777;47.482;19.054;2022-08-04T08:56:31;100598.47;;;33.10;nan
58759;BME280;46777;47.482;19.054;2022-08-04T08:59:35;100593.50;;;32.47;nan
58759;BME280;46777;47.482;19.054;2022-08-04T09:02:43;100600.06;;;32.35;nan
58759;BME280;46777;47.482;19.054;2022-08-04T09:11:45;100591.06;;;32.54;nan
58759;BME280;46777;47.482;19.054;2022-08-04T09:17:34;100587.31;;;33.04;nan
58759;BME280;46777;47.482;19.054;2022-08-04T09:20:30;100593.31;;;33.07;nan
58759;BME280;46777;47.482;19.054;2022-08-04T09:23:25;100591.69;;;33.72;nan
58759;BME280;46777;47.482;19.054;2022-08-04T09:26:20;100587.44;;;34.15;nan
58759;BME280;46777;47.482;19.054;2022-08-04T09:38:19;100596.25;;;32.67;nan
58759;BME280;46777;47.482;19.054;2022-08-04T09:41:15;100583.94;;;32.82;nan
58759;BME280;46777;47.482;19.054;2022-08-04T09:44:20;100582.09;;;34.59;nan
58759;BME280;46777;47.482;19.054;2022-08-04T09:47:39;100583.72;;;34.88;nan
58759;BME280;46777;47.482;19.054;2022-08-04T09:50:40;100570.56;;;35.10;nan
58759;BME280;46777;47.482;19.054;2022-08-04T10:00:14;100557.47;;;35.21;nan
58759;BME280;46777;47.482;19.054;2022-08-04T10:03:01;100571.31;;;34.94;nan
58759;BME280;46777;47.482;19.054;2022-08-04T10:06:05;100568.38;;;35.39;nan
58759;BME280;46777;47.482;19.054;2022-08-04T10:12:23;100548.50;;;35.72;nan
58759;BME280;46777;47.482;19.054;2022-08-04T10:15:20;100543.44;;;36.77;nan
58759;BME280;46777;47.482;19.054;2022-08-04T10:21:18;100544.78;;;36.49;nan
58759;BME280;46777;47.482;19.054;2022-08-04T10:25:31;100541.16;;;36.23;nan
58759;BME280;46777;47.482;19.054;2022-08-04T10:27:44;100540.88;;;37.40;nan
58759;BME280;46777;47.482;19.054;2022-08-04T10:30:32;100531.03;;;37.94;nan
58759;BME280;46777;47.482;19.054;2022-08-04T10:36:17;100538.25;;;37.95;nan
58759;BME280;46777;47.482;19.054;2022-08-04T10:39:07;100537.44;;;38.09;nan
58759;BME280;46777;47.482;19.054;2022-08-04T10:42:05;100522.94;;;37.77;nan
58759;BME280;46777;47.482;19.054;2022-08-04T10:45:18;100526.16;;;36.44;nan
58759;BME280;46777;47.482;19.054;2022-08-04T10:51:46;100524.94;;;36.55;nan
58759;BME280;46777;47.482;19.054;2022-08-04T10:54:38;100510.00;;;38.56;nan
58759;BME280;46777;47.482;19.054;2022-08-04T10:57:35;100515.63;;;38.39;nan
58759;BME280;46777;47.482;19.054;2022-08-04T11:00:26;100506.19;;;38.42;nan
58759;BME280;46777;47.482;19.054;2022-08-04T11:03:22;100502.00;;;39.95;nan
58759;BME280;46777;47.482;19.054;2022-08-04T11:06:08;100509.59;;;40.36;nan
58759;BME280;46777;47.482;19.054;2022-08-04T11:08:54;100497.53;;;41.71;nan
58759;BME280;46777;47.482;19.054;2022-08-04T11:11:54;100486.88;;;45.06;nan
58759;BME280;46777;47.482;19.054;2022-08-04T11:14:53;100487.59;;;45.51;nan
58759;BME280;46777;47.482;19.054;2022-08-04T11:17:42;100494.00;;;47.76;nan
58759;BME280;46777;47.482;19.054;2022-08-04T11:20:35;100496.53;;;47.08;nan
58759;BME280;46777;47.482;19.054;2022-08-04T11:23:25;100489.16;;;47.02;nan
58759;BME280;46777;47.482;19.054;2022-08-04T11:26:18;100492.22;;;47.41;nan
58759;BME280;46777;47.482;19.054;2022-08-04T11:29:15;100476.06;;;48.69;nan
58759;BME280;46777;47.482;19.054;2022-08-04T11:32:02;100484.28;;;49.96;nan
58759;BME280;46777;47.482;19.054;2022-08-04T11:34:52;100478.72;;;49.47;nan
58759;BME280;46777;47.482;19.054;2022-08-04T11:37:48;100472.22;;;48.19;nan
58759;BME280;46777;47.482;19.054;2022-08-04T11:40:40;100475.66;;;46.82;nan
58759;BME280;46777;47.482;19.054;2022-08-04T11:43:35;100468.78;;;48.85;nan
58759;BME280;46777;47.482;19.054;2022-08-04T11:46:31;100469.72;;;50.64;nan
58759;BME280;46777;47.482;19.054;2022-08-04T11:49:44;100462.03;;;53.14;nan
58759;BME280;46777;47.482;19.054;2022-08-04T11:52:31;100455.00;;;47.88;nan
58759;BME280;46777;47.482;19.054;2022-08-04T11:55:18;100455.72;;;48.68;nan
58759;BME280;46777;47.482;19.054;2022-08-04T11:58:05;100442.69;;;49.62;nan
58759;BME280;46777;47.482;19.054;2022-08-04T12:01:03;100440.34;;;50.14;nan
58759;BME280;46777;47.482;19.054;2022-08-04T12:04:04;100432.81;;;50.57;nan
58759;BME280;46777;47.482;19.054;2022-08-04T12:07:17;100420.13;;;50.39;nan
58759;BME280;46777;47.482;19.054;2022-08-04T12:10:19;100423.09;;;51.49;nan
58759;BME280;46777;47.482;19.054;2022-08-04T12:16:15;100411.66;;;52.93;nan
58759;BME280;46777;47.482;19.054;2022-08-04T12:19:03;100413.66;;;53.42;nan
58759;BME280;46777;47.482;19.054;2022-08-04T12:21:57;100411.13;;;52.91;nan
58759;BME280;46777;47.482;19.054;2022-08-04T12:24:48;100415.47;;;53.18;nan
58759;BME280;46777;47.482;19.054;2022-08-04T12:27:40;100416.03;;;53.94;nan
58759;BME280;46777;47.482;19.054;2022-08-04T12:30:34;100414.13;;;51.52;nan
58759;BME280;46777;47.482;19.054;2022-08-04T12:33:25;100415.97;;;53.70;nan
58759;BME280;46777;47.482;19.054;2022-08-04T12:36:23;100406.63;;;54.38;nan
58759;BME280;46777;47.482;19.054;2022-08-04T12:39:21;100410.53;;;52.94;nan
58759;BME280;46777;47.482;19.054;2022-08-04T12:42:12;100406.34;;;52.91;nan
58759;BME280;46777;47.482;19.054;2022-08-04T12:45:03;100396.97;;;51.07;nan
58759;BME280;46777;47.482;19.054;2022-08-04T12:47:55;100398.38;;;52.59;nan
58759;BME280;46777;47.482;19.054;2022-08-04T12:50:40;100387.22;;;53.83;nan
58759;BME280;46777;47.482;19.054;2022-08-04T12:53:29;100389.75;;;53.85;nan
58759;BME280;46777;47.482;19.054;2022-08-04T12:56:16;100391.22;;;51.91;nan
58759;BME280;46777;47.482;19.054;2022-08-04T12:59:09;100382.72;;;52.32;nan
58759;BME280;46777;47.482;19.054;2022-08-04T13:01:55;100391.00;;;54.27;nan
58759;BME280;46777;47.482;19.054;2022-08-04T13:04:41;100397.34;;;51.42;nan
58759;BME280;46777;47.482;19.054;2022-08-04T13:07:35;100386.13;;;52.24;nan
58759;BME280;46777;47.482;19.054;2022-08-04T13:10:21;100391.19;;;51.96;nan
58759;BME280;46777;47.482;19.054;2022-08-04T13:13:15;100380.38;;;52.75;nan
58759;BME280;46777;47.482;19.054;2022-08-04T13:16:02;100368.97;;;53.12;nan
58759;BME280;46777;47.482;19.054;2022-08-04T13:18:48;100377.03;;;52.73;nan
58759;BME280;46777;47.482;19.054;2022-08-04T13:21:34;100377.75;;;43.83;nan
58759;BME280;46777;47.482;19.054;2022-08-04T13:24:24;100374.16;;;42.40;nan
58759;BME280;46777;47.482;19.054;2022-08-04T13:27:10;100384.16;;;41.87;nan
58759;BME280;46777;47.482;19.054;2022-08-04T13:29:56;100377.25;;;40.81;nan
58759;BME280;46777;47.482;19.054;2022-08-04T13:32:42;100366.56;;;41.00;nan
58759;BME280;46777;47.482;19.054;2022-08-04T13:35:27;100359.13;;;40.93;nan
58759;BME280;46777;47.482;19.054;2022-08-04T13:38:14;100371.84;;;41.90;nan
58759;BME280;46777;47.482;19.054;2022-08-04T13:41:03;100355.47;;;39.08;nan
58759;BME280;46777;47.482;19.054;2022-08-04T13:43:54;100353.09;;;40.70;nan
58759;BME280;46777;47.482;19.054;2022-08-04T13:47:27;100349.44;;;41.04;nan
58759;BME280;46777;47.482;19.054;2022-08-04T13:52:54;100354.41;;;39.24;nan
58759;BME280;46777;47.482;19.054;2022-08-04T13:55:38;100345.00;;;38.52;nan
58759;BME280;46777;47.482;19.054;2022-08-04T13:58:24;100348.88;;;38.43;nan
58759;BME280;46777;47.482;19.054;2022-08-04T14:01:14;100342.31;;;39.03;nan
58759;BME280;46777;47.482;19.054;2022-08-04T14:04:19;100344.72;;;38.92;nan
58759;BME280;46777;47.482;19.054;2022-08-04T14:07:12;100342.03;;;39.13;nan
58759;BME280;46777;47.482;19.054;2022-08-04T14:09:58;100343.81;;;38.16;nan
58759;BME280;46777;47.482;19.054;2022-08-04T14:12:46;100332.44;;;38.58;nan
58759;BME280;46777;47.482;19.054;2022-08-04T14:15:37;100333.66;;;38.40;nan
58759;BME280;46777;47.482;19.054;2022-08-04T14:18:29;100344.81;;;37.39;nan
58759;BME280;46777;47.482;19.054;2022-08-04T14:21:16;100333.84;;;37.86;nan
58759;BME280;46777;47.482;19.054;2022-08-04T14:24:01;100330.75;;;37.42;nan
58759;BME280;46777;47.482;19.054;2022-08-04T14:26:46;100323.34;;;37.28;nan
58759;BME280;46777;47.482;19.054;2022-08-04T14:29:37;100330.44;;;37.83;nan
58759;BME280;46777;47.482;19.054;2022-08-04T14:32:22;100333.19;;;37.37;nan
58759;BME280;46777;47.482;19.054;2022-08-04T14:35:11;100334.31;;;37.28;nan
58759;BME280;46777;47.482;19.054;2022-08-04T14:37:58;100334.69;;;37.17;nan
58759;BME280;46777;47.482;19.054;2022-08-04T14:40:42;100324.03;;;36.90;nan
58759;BME280;46777;47.482;19.054;2022-08-04T14:43:29;100327.84;;;37.67;nan
58759;BME280;46777;47.482;19.054;2022-08-04T14:46:14;100324.66;;;37.32;nan
58759;BME280;46777;47.482;19.054;2022-08-04T14:49:08;100322.84;;;36.93;nan
58759;BME280;46777;47.482;19.054;2022-08-04T14:51:59;100327.94;;;36.96;nan
58759;BME280;46777;47.482;19.054;2022-08-04T14:54:46;100320.84;;;36.78;nan
58759;BME280;46777;47.482;19.054;2022-08-04T14:57:35;100323.09;;;35.94;nan
58759;BME280;46777;47.482;19.054;2022-08-04T15:00:28;100320.97;;;36.46;nan
58759;BME280;46777;47.482;19.054;2022-08-04T15:03:12;100322.25;;;35.94;nan
58759;BME280;46777;47.482;19.054;2022-08-04T15:05:59;100318.53;;;36.51;nan
58759;BME280;46777;47.482;19.054;2022-08-04T15:08:44;100314.94;;;36.98;nan
58759;BME280;46777;47.482;19.054;2022-08-04T15:11:29;100320.03;;;37.01;nan
58759;BME280;46777;47.482;19.054;2022-08-04T15:14:14;100312.03;;;36.60;nan
58759;BME280;46777;47.482;19.054;2022-08-04T15:16:59;100309.91;;;36.22;nan
58759;BME280;46777;47.482;19.054;2022-08-04T15:19:44;100317.47;;;36.04;nan
58759;BME280;46777;47.482;19.054;2022-08-04T15:22:28;100315.91;;;35.60;nan
58759;BME280;46777;47.482;19.054;2022-08-04T15:25:14;100313.34;;;36.16;nan
58759;BME280;46777;47.482;19.054;2022-08-04T15:28:00;100311.50;;;35.92;nan
58759;BME280;46777;47.482;19.054;2022-08-04T15:30:47;100314.72;;;35.96;nan
58759;BME280;46777;47.482;19.054;2022-08-04T15:33:33;100307.34;;;36.21;nan
58759;BME280;46777;47.482;19.054;2022-08-04T15:36:33;100306.03;;;36.00;nan
58759;BME280;46777;47.482;19.054;2022-08-04T15:39:27;100308.06;;;35.98;nan
58759;BME280;46777;47.482;19.054;2022-08-04T15:42:29;100310.66;;;35.50;nan
58759;BME280;46777;47.482;19.054;2022-08-04T15:45:24;100297.50;;;35.46;nan
58759;BME280;46777;47.482;19.054;2022-08-04T15:48:22;100293.09;;;35.36;nan
58759;BME280;46777;47.482;19.054;2022-08-04T15:51:09;100297.50;;;35.37;nan
58759;BME280;46777;47.482;19.054;2022-08-04T15:54:19;100294.41;;;35.57;nan
58759;BME280;46777;47.482;19.054;2022-08-04T15:57:03;100293.91;;;35.37;nan
58759;BME280;46777;47.482;19.054;2022-08-04T16:00:03;100292.81;;;35.05;nan
58759;BME280;46777;47.482;19.054;2022-08-04T16:02:50;100298.28;;;35.13;nan
58759;BME280;46777;47.482;19.054;2022-08-04T16:05:35;100291.66;;;35.16;nan
58759;BME280;46777;47.482;19.054;2022-08-04T16:08:22;100287.59;;;35.45;nan
58759;BME280;46777;47.482;19.054;2022-08-04T16:14:13;100291.53;;;34.75;nan
58759;BME280;46777;47.482;19.054;2022-08-04T16:17:13;100284.75;;;34.79;nan
58759;BME280;46777;47.482;19.054;2022-08-04T16:20:07;100288.50;;;34.78;nan
58759;BME280;46777;47.482;19.054;2022-08-04T16:22:56;100287.66;;;34.77;nan
58759;BME280;46777;47.482;19.054;2022-08-04T16:25:43;100287.19;;;35.07;nan
58759;BME280;46777;47.482;19.054;2022-08-04T16:28:34;100285.13;;;34.92;nan
58759;BME280;46777;47.482;19.054;2022-08-04T16:31:21;100280.19;;;34.53;nan
58759;BME280;46777;47.482;19.054;2022-08-04T16:34:08;100287.16;;;34.90;nan
58759;BME280;46777;47.482;19.054;2022-08-04T16:36:58;100282.28;;;34.67;nan
58759;BME280;46777;47.482;19.054;2022-08-04T16:39:44;100280.56;;;34.66;nan
58759;BME280;46777;47.482;19.054;2022-08-04T16:42:33;100282.28;;;34.67;nan
58759;BME280;46777;47.482;19.054;2022-08-04T16:45:18;100279.22;;;34.70;nan
58759;BME280;46777;47.482;19.054;2022-08-04T16:48:06;100271.38;;;34.67;nan
58759;BME280;46777;47.482;19.054;2022-08-04T16:53:44;100272.38;;;34.58;nan
58759;BME280;46777;47.482;19.054;2022-08-04T16:56:30;100267.59;;;34.52;nan
58759;BME280;46777;47.482;19.054;2022-08-04T16:59:15;100270.94;;;34.38;nan
58759;BME280;46777;47.482;19.054;2022-08-04T17:02:01;100275.66;;;34.27;nan
58759;BME280;46777;47.482;19.054;2022-08-04T17:04:46;100278.09;;;34.39;nan
58759;BME280;46777;47.482;19.054;2022-08-04T17:07:51;100273.81;;;34.10;nan
58759;BME280;46777;47.482;19.054;2022-08-04T17:10:37;100277.44;;;34.45;nan
58759;BME280;46777;47.482;19.054;2022-08-04T17:13:29;100279.69;;;34.23;nan
58759;BME280;46777;47.482;19.054;2022-08-04T17:16:16;100274.22;;;34.15;nan
58759;BME280;46777;47.482;19.054;2022-08-04T17:19:03;100276.94;;;34.15;nan
58759;BME280;46777;47.482;19.054;2022-08-04T17:21:49;100285.91;;;33.81;nan
58759;BME280;46777;47.482;19.054;2022-08-04T17:24:38;100280.25;;;34.00;nan
58759;BME280;46777;47.482;19.054;2022-08-04T17:27:23;100282.59;;;33.95;nan
58759;BME280;46777;47.482;19.054;2022-08-04T17:30:26;100279.06;;;33.77;nan
58759;BME280;46777;47.482;19.054;2022-08-04T17:33:12;100288.78;;;33.61;nan
58759;BME280;46777;47.482;19.054;2022-08-04T17:35:59;100286.53;;;33.75;nan
58759;BME280;46777;47.482;19.054;2022-08-04T17:38:46;100293.19;;;33.62;nan
58759;BME280;46777;47.482;19.054;2022-08-04T17:41:34;100290.28;;;33.38;nan
58759;BME280;46777;47.482;19.054;2022-08-04T17:44:19;100287.94;;;33.43;nan
58759;BME280;46777;47.482;19.054;2022-08-04T17:47:22;100291.38;;;33.45;nan
58759;BME280;46777;47.482;19.054;2022-08-04T17:50:08;100292.69;;;33.23;nan
58759;BME280;46777;47.482;19.054;2022-08-04T17:55:45;100296.13;;;33.15;nan
58759;BME280;46777;47.482;19.054;2022-08-04T17:58:31;100289.47;;;33.09;nan
58759;BME280;46777;47.482;19.054;2022-08-04T18:01:15;100289.69;;;33.16;nan
58759;BME280;46777;47.482;19.054;2022-08-04T18:07:35;100295.16;;;32.88;nan
58759;BME280;46777;47.482;19.054;2022-08-04T18:10:33;100295.59;;;33.11;nan
58759;BME280;46777;47.482;19.054;2022-08-04T18:13:18;100292.38;;;32.80;nan
58759;BME280;46777;47.482;19.054;2022-08-04T18:16:04;100293.00;;;32.74;nan